Skip Navigation LinksHome page > Weather > Current weather Skip Navigation Links

Current Weather

Moundou, Chad

For information only: do not use for flight planning or navigation.
Latest weather
Observation time Sunday, November 23, 2014 1:00 PM WAT
Local time Sunday, November 23, 2014 3:15 PM WAT
Flight conditions Visual Meteorological Conditions
Winds
Wind direction North (360°)
Wind speed 12 mph
Visibility 6.2 mi.
Sky condition
Ceiling unlimited
Sky clear
Temperature 95°F
Dewpoint 46°F
Altimeter 29.88 in.Hg
Derived measurements
Relative humidity 19%
Heat index 95°F
Density altitude 2894 ft.
Remarks
Ceiling and visibility OK.
METAR FTTD 231200Z 36010KT CAVOK 35/08 Q1012

Settings

Location code

InnerDrive.Weather 4.0.5399.0 Release CLR 4.0.30319.34014
Copyright ©2014 Inner Drive Technology. All rights reserved. Portions Copyright ©1986-2014 David Braverman.

Find weather

Site navigation


Skip Navigation Links

Place info

Page info

PayPal - The safer, easier way to pay online!

Return home.

Copyright ©2014 Inner Drive Technology. Purveyors of fine, hand-crafted computer software. Page printed 2014-11-23T14:15:33 UTC.